sensor_id;sensor_type;location;lat;lon;timestamp;temperature;humidity
23267;DHT22;11802;53.160;8.214;2022-08-01T00:01:43;18.40;99.90
23267;DHT22;11802;53.160;8.214;2022-08-01T00:04:09;18.40;99.90
23267;DHT22;11802;53.160;8.214;2022-08-01T00:06:35;18.40;99.90
23267;DHT22;11802;53.160;8.214;2022-08-01T00:09:00;18.40;99.90
23267;DHT22;11802;53.160;8.214;2022-08-01T00:11:26;18.40;99.90
23267;DHT22;11802;53.160;8.214;2022-08-01T00:13:52;18.40;99.90
23267;DHT22;11802;53.160;8.214;2022-08-01T00:16:17;18.40;99.90
23267;DHT22;11802;53.160;8.214;2022-08-01T00:18:43;18.40;99.90
23267;DHT22;11802;53.160;8.214;2022-08-01T00:21:09;18.30;99.90
23267;DHT22;11802;53.160;8.214;2022-08-01T00:23:34;18.30;99.90
23267;DHT22;11802;53.160;8.214;2022-08-01T00:26:00;18.40;99.90
23267;DHT22;11802;53.160;8.214;2022-08-01T00:28:25;18.30;99.90
23267;DHT22;11802;53.160;8.214;2022-08-01T00:30:51;18.30;99.90
23267;DHT22;11802;53.160;8.214;2022-08-01T00:33:16;18.30;99.90
23267;DHT22;11802;53.160;8.214;2022-08-01T00:35:43;18.40;99.90
23267;DHT22;11802;53.160;8.214;2022-08-01T00:38:08;18.30;99.90
23267;DHT22;11802;53.160;8.214;2022-08-01T00:40:34;18.30;99.90
23267;DHT22;11802;53.160;8.214;2022-08-01T00:42:59;18.30;99.90
23267;DHT22;11802;53.160;8.214;2022-08-01T00:45:25;18.30;99.90
23267;DHT22;11802;53.160;8.214;2022-08-01T00:47:50;18.30;99.90
23267;DHT22;11802;53.160;8.214;2022-08-01T00:50:16;18.30;99.90
23267;DHT22;11802;53.160;8.214;2022-08-01T00:52:42;18.30;99.90
23267;DHT22;11802;53.160;8.214;2022-08-01T00:55:10;18.20;99.90
23267;DHT22;11802;53.160;8.214;2022-08-01T00:57:37;18.30;99.90
23267;DHT22;11802;53.160;8.214;2022-08-01T01:00:07;18.30;99.90
23267;DHT22;11802;53.160;8.214;2022-08-01T01:02:33;18.30;99.90
23267;DHT22;11802;53.160;8.214;2022-08-01T01:05:00;18.20;99.90
23267;DHT22;11802;53.160;8.214;2022-08-01T01:10:22;18.20;99.90
23267;DHT22;11802;53.160;8.214;2022-08-01T01:12:55;18.30;99.90
23267;DHT22;11802;53.160;8.214;2022-08-01T01:15:46;18.30;99.90
23267;DHT22;11802;53.160;8.214;2022-08-01T01:18:24;18.30;99.90
23267;DHT22;11802;53.160;8.214;2022-08-01T01:26:42;18.30;99.90
23267;DHT22;11802;53.160;8.214;2022-08-01T01:29:27;18.20;99.90
23267;DHT22;11802;53.160;8.214;2022-08-01T01:32:02;18.10;99.90
23267;DHT22;11802;53.160;8.214;2022-08-01T01:34:37;18.20;99.90
23267;DHT22;11802;53.160;8.214;2022-08-01T01:37:09;18.10;99.90
23267;DHT22;11802;53.160;8.214;2022-08-01T01:39:36;18.10;99.90
23267;DHT22;11802;53.160;8.214;2022-08-01T01:42:09;18.10;99.90
23267;DHT22;11802;53.160;8.214;2022-08-01T01:44:37;18.10;99.90
23267;DHT22;11802;53.160;8.214;2022-08-01T01:47:06;18.10;99.90
23267;DHT22;11802;53.160;8.214;2022-08-01T01:49:32;18.10;99.90
23267;DHT22;11802;53.160;8.214;2022-08-01T01:52:00;18.10;99.90
23267;DHT22;11802;53.160;8.214;2022-08-01T01:54:37;18.10;99.90
23267;DHT22;11802;53.160;8.214;2022-08-01T01:57:08;18.00;99.90
23267;DHT22;11802;53.160;8.214;2022-08-01T01:59:36;18.00;99.90
23267;DHT22;11802;53.160;8.214;2022-08-01T02:02:04;18.10;99.90
23267;DHT22;11802;53.160;8.214;2022-08-01T02:04:30;18.10;99.90
23267;DHT22;11802;53.160;8.214;2022-08-01T02:06:59;18.00;99.90
23267;DHT22;11802;53.160;8.214;2022-08-01T02:09:27;18.00;99.90
23267;DHT22;11802;53.160;8.214;2022-08-01T02:11:54;18.00;99.90
23267;DHT22;11802;53.160;8.214;2022-08-01T02:14:22;18.00;99.90
23267;DHT22;11802;53.160;8.214;2022-08-01T02:16:49;18.00;99.90
23267;DHT22;11802;53.160;8.214;2022-08-01T02:19:18;18.00;99.90
23267;DHT22;11802;53.160;8.214;2022-08-01T02:22:10;18.00;99.90
23267;DHT22;11802;53.160;8.214;2022-08-01T02:24:49;17.90;99.90
23267;DHT22;11802;53.160;8.214;2022-08-01T02:30:19;17.90;99.90
23267;DHT22;11802;53.160;8.214;2022-08-01T02:32:48;17.80;99.90
23267;DHT22;11802;53.160;8.214;2022-08-01T02:35:37;17.80;99.90
23267;DHT22;11802;53.160;8.214;2022-08-01T02:38:08;17.80;99.90
23267;DHT22;11802;53.160;8.214;2022-08-01T02:40:36;17.80;99.90
23267;DHT22;11802;53.160;8.214;2022-08-01T02:43:05;17.70;99.90
23267;DHT22;11802;53.160;8.214;2022-08-01T02:45:32;17.80;99.90
23267;DHT22;11802;53.160;8.214;2022-08-01T02:48:04;17.70;99.90
23267;DHT22;11802;53.160;8.214;2022-08-01T02:50:32;17.70;99.90
23267;DHT22;11802;53.160;8.214;2022-08-01T02:52:58;17.70;99.90
23267;DHT22;11802;53.160;8.214;2022-08-01T02:55:26;17.70;99.90
23267;DHT22;11802;53.160;8.214;2022-08-01T02:57:54;17.70;99.90
23267;DHT22;11802;53.160;8.214;2022-08-01T03:00:20;17.60;99.90
23267;DHT22;11802;53.160;8.214;2022-08-01T03:02:47;17.60;99.90
23267;DHT22;11802;53.160;8.214;2022-08-01T03:05:17;17.50;99.90
23267;DHT22;11802;53.160;8.214;2022-08-01T03:07:42;17.60;99.90
23267;DHT22;11802;53.160;8.214;2022-08-01T03:10:09;17.60;99.90
23267;DHT22;11802;53.160;8.214;2022-08-01T03:12:36;17.50;99.90
23267;DHT22;11802;53.160;8.214;2022-08-01T03:15:04;17.50;99.90
23267;DHT22;11802;53.160;8.214;2022-08-01T03:17:31;17.50;99.90
23267;DHT22;11802;53.160;8.214;2022-08-01T03:19:58;17.60;99.90
23267;DHT22;11802;53.160;8.214;2022-08-01T03:22:26;17.50;99.90
23267;DHT22;11802;53.160;8.214;2022-08-01T03:24:53;17.50;99.90
23267;DHT22;11802;53.160;8.214;2022-08-01T03:27:21;17.50;99.90
23267;DHT22;11802;53.160;8.214;2022-08-01T03:29:48;17.50;99.90
23267;DHT22;11802;53.160;8.214;2022-08-01T03:32:15;17.50;99.90
23267;DHT22;11802;53.160;8.214;2022-08-01T03:34:41;17.50;99.90
23267;DHT22;11802;53.160;8.214;2022-08-01T03:40:28;17.40;99.90
23267;DHT22;11802;53.160;8.214;2022-08-01T03:42:35;17.40;99.90
23267;DHT22;11802;53.160;8.214;2022-08-01T03:45:07;17.40;99.90
23267;DHT22;11802;53.160;8.214;2022-08-01T03:47:35;17.40;99.90
23267;DHT22;11802;53.160;8.214;2022-08-01T03:50:03;17.40;99.90
23267;DHT22;11802;53.160;8.214;2022-08-01T03:52:30;17.40;99.90
23267;DHT22;11802;53.160;8.214;2022-08-01T03:54:59;17.40;99.90
23267;DHT22;11802;53.160;8.214;2022-08-01T03:57:28;17.30;99.90
23267;DHT22;11802;53.160;8.214;2022-08-01T03:59:56;17.30;99.90
23267;DHT22;11802;53.160;8.214;2022-08-01T04:02:22;17.30;99.90
23267;DHT22;11802;53.160;8.214;2022-08-01T04:04:48;17.30;99.90
23267;DHT22;11802;53.160;8.214;2022-08-01T04:07:26;17.30;99.90
23267;DHT22;11802;53.160;8.214;2022-08-01T04:09:52;17.20;99.90
23267;DHT22;11802;53.160;8.214;2022-08-01T04:12:18;17.20;99.90
23267;DHT22;11802;53.160;8.214;2022-08-01T04:14:43;17.20;99.90
23267;DHT22;11802;53.160;8.214;2022-08-01T04:17:09;17.20;99.90
23267;DHT22;11802;53.160;8.214;2022-08-01T04:19:34;17.20;99.90
23267;DHT22;11802;53.160;8.214;2022-08-01T04:22:00;17.20;99.90
23267;DHT22;11802;53.160;8.214;2022-08-01T04:24:28;17.10;99.90
23267;DHT22;11802;53.160;8.214;2022-08-01T04:26:56;17.10;99.90
23267;DHT22;11802;53.160;8.214;2022-08-01T04:29:24;17.10;99.90
23267;DHT22;11802;53.160;8.214;2022-08-01T04:31:50;17.00;99.90
23267;DHT22;11802;53.160;8.214;2022-08-01T04:34:21;17.00;99.90
23267;DHT22;11802;53.160;8.214;2022-08-01T04:36:48;17.00;99.90
23267;DHT22;11802;53.160;8.214;2022-08-01T04:39:15;17.00;99.90
23267;DHT22;11802;53.160;8.214;2022-08-01T04:41:42;17.00;99.90
23267;DHT22;11802;53.160;8.214;2022-08-01T04:44:08;17.00;99.90
23267;DHT22;11802;53.160;8.214;2022-08-01T04:46:34;17.00;99.90
23267;DHT22;11802;53.160;8.214;2022-08-01T04:49:02;17.00;99.90
23267;DHT22;11802;53.160;8.214;2022-08-01T04:51:30;17.00;99.90
23267;DHT22;11802;53.160;8.214;2022-08-01T04:53:55;17.00;99.90
23267;DHT22;11802;53.160;8.214;2022-08-01T04:56:22;17.10;99.90
23267;DHT22;11802;53.160;8.214;2022-08-01T04:58:48;17.10;99.90
23267;DHT22;11802;53.160;8.214;2022-08-01T05:01:33;17.20;99.90
23267;DHT22;11802;53.160;8.214;2022-08-01T05:03:59;17.30;99.90
23267;DHT22;11802;53.160;8.214;2022-08-01T05:06:24;17.10;99.90
23267;DHT22;11802;53.160;8.214;2022-08-01T05:08:50;17.20;99.90
23267;DHT22;11802;53.160;8.214;2022-08-01T05:11:15;17.20;99.90
23267;DHT22;11802;53.160;8.214;2022-08-01T05:13:41;17.20;99.90
23267;DHT22;11802;53.160;8.214;2022-08-01T05:16:06;17.20;99.90
23267;DHT22;11802;53.160;8.214;2022-08-01T05:18:32;17.10;99.90
23267;DHT22;11802;53.160;8.214;2022-08-01T05:20:57;17.00;99.90
23267;DHT22;11802;53.160;8.214;2022-08-01T05:23:23;17.00;99.90
23267;DHT22;11802;53.160;8.214;2022-08-01T05:25:49;16.90;99.90
23267;DHT22;11802;53.160;8.214;2022-08-01T05:28:15;16.90;99.90
23267;DHT22;11802;53.160;8.214;2022-08-01T05:30:40;16.80;99.90
23267;DHT22;11802;53.160;8.214;2022-08-01T05:33:06;16.80;99.90
23267;DHT22;11802;53.160;8.214;2022-08-01T05:35:31;16.70;99.90
23267;DHT22;11802;53.160;8.214;2022-08-01T05:37:57;16.70;99.90
23267;DHT22;11802;53.160;8.214;2022-08-01T05:40:22;16.60;99.90
23267;DHT22;11802;53.160;8.214;2022-08-01T05:42:48;16.60;99.90
23267;DHT22;11802;53.160;8.214;2022-08-01T05:45:13;16.60;99.90
23267;DHT22;11802;53.160;8.214;2022-08-01T05:47:39;16.60;99.90
23267;DHT22;11802;53.160;8.214;2022-08-01T05:50:05;16.60;99.90
23267;DHT22;11802;53.160;8.214;2022-08-01T05:52:30;16.60;99.90
23267;DHT22;11802;53.160;8.214;2022-08-01T05:54:56;16.70;99.90
23267;DHT22;11802;53.160;8.214;2022-08-01T05:57:21;16.70;99.90
23267;DHT22;11802;53.160;8.214;2022-08-01T05:59:47;16.70;99.90
23267;DHT22;11802;53.160;8.214;2022-08-01T06:02:12;16.80;99.90
23267;DHT22;11802;53.160;8.214;2022-08-01T06:04:38;16.90;99.90
23267;DHT22;11802;53.160;8.214;2022-08-01T06:07:03;16.90;99.90
23267;DHT22;11802;53.160;8.214;2022-08-01T06:09:29;17.00;99.90
23267;DHT22;11802;53.160;8.214;2022-08-01T06:11:56;17.10;99.90
23267;DHT22;11802;53.160;8.214;2022-08-01T06:14:21;17.10;99.90
23267;DHT22;11802;53.160;8.214;2022-08-01T06:16:47;17.10;99.90
23267;DHT22;11802;53.160;8.214;2022-08-01T06:19:12;17.20;99.90
23267;DHT22;11802;53.160;8.214;2022-08-01T06:21:38;17.30;99.90
23267;DHT22;11802;53.160;8.214;2022-08-01T06:24:04;17.40;99.90
23267;DHT22;11802;53.160;8.214;2022-08-01T06:26:29;17.50;99.90
23267;DHT22;11802;53.160;8.214;2022-08-01T06:28:56;17.60;99.90
23267;DHT22;11802;53.160;8.214;2022-08-01T06:31:22;17.70;99.90
23267;DHT22;11802;53.160;8.214;2022-08-01T06:33:47;18.00;99.90
23267;DHT22;11802;53.160;8.214;2022-08-01T06:36:13;18.20;99.90
23267;DHT22;11802;53.160;8.214;2022-08-01T06:38:38;18.50;99.90
23267;DHT22;11802;53.160;8.214;2022-08-01T06:41:04;18.50;99.90
23267;DHT22;11802;53.160;8.214;2022-08-01T06:43:30;18.50;99.90
23267;DHT22;11802;53.160;8.214;2022-08-01T06:45:56;18.40;99.90
23267;DHT22;11802;53.160;8.214;2022-08-01T06:48:22;18.30;99.90
23267;DHT22;11802;53.160;8.214;2022-08-01T06:50:48;18.50;99.90
23267;DHT22;11802;53.160;8.214;2022-08-01T06:53:13;19.40;99.90
23267;DHT22;11802;53.160;8.214;2022-08-01T06:55:39;20.60;99.90
23267;DHT22;11802;53.160;8.214;2022-08-01T06:58:04;22.10;99.90
23267;DHT22;11802;53.160;8.214;2022-08-01T07:00:30;22.50;99.90
23267;DHT22;11802;53.160;8.214;2022-08-01T07:02:57;23.00;99.90
23267;DHT22;11802;53.160;8.214;2022-08-01T07:05:24;24.00;99.90
23267;DHT22;11802;53.160;8.214;2022-08-01T07:07:49;24.60;99.90
23267;DHT22;11802;53.160;8.214;2022-08-01T07:10:16;24.90;99.90
23267;DHT22;11802;53.160;8.214;2022-08-01T07:12:41;24.40;99.90
23267;DHT22;11802;53.160;8.214;2022-08-01T07:15:08;23.40;99.90
23267;DHT22;11802;53.160;8.214;2022-08-01T07:17:39;23.40;99.90
23267;DHT22;11802;53.160;8.214;2022-08-01T07:20:09;24.60;99.90
23267;DHT22;11802;53.160;8.214;2022-08-01T07:22:36;25.80;99.90
23267;DHT22;11802;53.160;8.214;2022-08-01T07:25:03;26.80;99.90
23267;DHT22;11802;53.160;8.214;2022-08-01T07:27:29;27.20;99.90
23267;DHT22;11802;53.160;8.214;2022-08-01T07:29:55;27.10;99.90
23267;DHT22;11802;53.160;8.214;2022-08-01T07:32:20;27.70;99.90
23267;DHT22;11802;53.160;8.214;2022-08-01T07:34:46;28.60;99.90
23267;DHT22;11802;53.160;8.214;2022-08-01T07:37:12;29.40;99.90
23267;DHT22;11802;53.160;8.214;2022-08-01T07:39:37;29.50;99.90
23267;DHT22;11802;53.160;8.214;2022-08-01T07:42:03;29.40;99.90
23267;DHT22;11802;53.160;8.214;2022-08-01T07:44:28;28.10;99.90
23267;DHT22;11802;53.160;8.214;2022-08-01T07:46:54;27.80;99.90
23267;DHT22;11802;53.160;8.214;2022-08-01T07:49:19;27.90;99.90
23267;DHT22;11802;53.160;8.214;2022-08-01T07:51:47;27.10;99.90
23267;DHT22;11802;53.160;8.214;2022-08-01T07:54:12;26.70;99.90
23267;DHT22;11802;53.160;8.214;2022-08-01T07:56:38;25.60;99.90
23267;DHT22;11802;53.160;8.214;2022-08-01T07:59:03;25.00;99.90
23267;DHT22;11802;53.160;8.214;2022-08-01T08:01:29;24.40;99.90
23267;DHT22;11802;53.160;8.214;2022-08-01T08:03:54;24.00;99.90
23267;DHT22;11802;53.160;8.214;2022-08-01T08:06:20;24.10;99.90
23267;DHT22;11802;53.160;8.214;2022-08-01T08:08:45;24.10;99.90
23267;DHT22;11802;53.160;8.214;2022-08-01T08:11:11;24.20;99.90
23267;DHT22;11802;53.160;8.214;2022-08-01T08:13:37;24.10;99.90
23267;DHT22;11802;53.160;8.214;2022-08-01T08:16:02;24.70;99.90
23267;DHT22;11802;53.160;8.214;2022-08-01T08:18:28;25.50;99.90
23267;DHT22;11802;53.160;8.214;2022-08-01T08:20:53;27.00;99.90
23267;DHT22;11802;53.160;8.214;2022-08-01T08:23:19;28.40;99.90
23267;DHT22;11802;53.160;8.214;2022-08-01T08:26:03;29.10;99.90
23267;DHT22;11802;53.160;8.214;2022-08-01T08:28:29;29.00;99.90
23267;DHT22;11802;53.160;8.214;2022-08-01T08:30:54;29.80;99.90
23267;DHT22;11802;53.160;8.214;2022-08-01T08:33:20;31.00;99.90
23267;DHT22;11802;53.160;8.214;2022-08-01T08:35:46;30.60;99.90
23267;DHT22;11802;53.160;8.214;2022-08-01T08:38:11;29.70;99.90
23267;DHT22;11802;53.160;8.214;2022-08-01T08:40:37;28.60;99.90
23267;DHT22;11802;53.160;8.214;2022-08-01T08:43:04;28.30;99.90
23267;DHT22;11802;53.160;8.214;2022-08-01T08:45:31;28.60;99.90
23267;DHT22;11802;53.160;8.214;2022-08-01T08:47:57;27.80;99.90
23267;DHT22;11802;53.160;8.214;2022-08-01T08:50:24;27.90;99.90
23267;DHT22;11802;53.160;8.214;2022-08-01T08:52:52;27.90;99.90
23267;DHT22;11802;53.160;8.214;2022-08-01T08:55:18;27.60;99.90
23267;DHT22;11802;53.160;8.214;2022-08-01T08:57:45;27.40;99.90
23267;DHT22;11802;53.160;8.214;2022-08-01T09:00:11;27.40;99.90
23267;DHT22;11802;53.160;8.214;2022-08-01T09:02:42;27.40;99.90
23267;DHT22;11802;53.160;8.214;2022-08-01T09:05:08;27.90;99.90
23267;DHT22;11802;53.160;8.214;2022-08-01T09:07:34;28.10;99.90
23267;DHT22;11802;53.160;8.214;2022-08-01T09:09:59;28.20;99.90
23267;DHT22;11802;53.160;8.214;2022-08-01T09:12:25;28.20;99.90
23267;DHT22;11802;53.160;8.214;2022-08-01T09:14:51;27.30;99.90
23267;DHT22;11802;53.160;8.214;2022-08-01T09:17:19;27.00;99.90
23267;DHT22;11802;53.160;8.214;2022-08-01T09:19:48;26.80;99.90
23267;DHT22;11802;53.160;8.214;2022-08-01T09:22:16;26.40;99.90
23267;DHT22;11802;53.160;8.214;2022-08-01T09:25:09;26.70;99.90
23267;DHT22;11802;53.160;8.214;2022-08-01T09:27:36;26.70;99.90
23267;DHT22;11802;53.160;8.214;2022-08-01T09:30:12;27.00;99.90
23267;DHT22;11802;53.160;8.214;2022-08-01T09:33:01;27.50;99.90
23267;DHT22;11802;53.160;8.214;2022-08-01T09:38:18;26.20;99.90
23267;DHT22;11802;53.160;8.214;2022-08-01T09:40:50;26.10;99.90
23267;DHT22;11802;53.160;8.214;2022-08-01T09:43:16;26.80;99.90
23267;DHT22;11802;53.160;8.214;2022-08-01T09:45:42;27.10;99.90
23267;DHT22;11802;53.160;8.214;2022-08-01T09:48:09;27.30;99.90
23267;DHT22;11802;53.160;8.214;2022-08-01T09:50:42;27.40;99.90
23267;DHT22;11802;53.160;8.214;2022-08-01T09:53:11;26.70;99.90
23267;DHT22;11802;53.160;8.214;2022-08-01T09:55:38;26.70;99.90
23267;DHT22;11802;53.160;8.214;2022-08-01T09:58:04;26.40;99.90
23267;DHT22;11802;53.160;8.214;2022-08-01T10:00:31;26.50;99.90
23267;DHT22;11802;53.160;8.214;2022-08-01T10:02:58;26.80;99.90
23267;DHT22;11802;53.160;8.214;2022-08-01T10:05:31;26.70;99.90
23267;DHT22;11802;53.160;8.214;2022-08-01T10:08:04;26.50;99.90
23267;DHT22;11802;53.160;8.214;2022-08-01T10:10:30;26.70;99.90
23267;DHT22;11802;53.160;8.214;2022-08-01T10:12:57;26.50;99.90
23267;DHT22;11802;53.160;8.214;2022-08-01T10:15:25;27.20;99.90
23267;DHT22;11802;53.160;8.214;2022-08-01T10:17:56;27.70;99.90
23267;DHT22;11802;53.160;8.214;2022-08-01T10:20:28;28.30;99.90
23267;DHT22;11802;53.160;8.214;2022-08-01T10:22:55;28.30;99.90
23267;DHT22;11802;53.160;8.214;2022-08-01T10:25:23;28.60;99.90
23267;DHT22;11802;53.160;8.214;2022-08-01T10:27:53;29.10;99.90
23267;DHT22;11802;53.160;8.214;2022-08-01T10:30:22;27.80;99.90
23267;DHT22;11802;53.160;8.214;2022-08-01T10:32:48;27.00;99.90
23267;DHT22;11802;53.160;8.214;2022-08-01T10:35:14;27.00;99.90
23267;DHT22;11802;53.160;8.214;2022-08-01T10:37:46;27.40;99.90
23267;DHT22;11802;53.160;8.214;2022-08-01T10:40:15;27.80;99.90
23267;DHT22;11802;53.160;8.214;2022-08-01T10:42:45;27.80;99.90
23267;DHT22;11802;53.160;8.214;2022-08-01T10:45:13;27.30;99.90
23267;DHT22;11802;53.160;8.214;2022-08-01T10:50:44;27.50;99.90
23267;DHT22;11802;53.160;8.214;2022-08-01T10:53:15;27.70;99.90
23267;DHT22;11802;53.160;8.214;2022-08-01T10:56:02;27.70;99.90
23267;DHT22;11802;53.160;8.214;2022-08-01T10:58:29;27.80;99.90
23267;DHT22;11802;53.160;8.214;2022-08-01T11:01:24;28.00;99.90
23267;DHT22;11802;53.160;8.214;2022-08-01T11:04:08;28.20;99.90
23267;DHT22;11802;53.160;8.214;2022-08-01T11:09:19;28.40;99.90
23267;DHT22;11802;53.160;8.214;2022-08-01T11:12:04;28.50;99.90
23267;DHT22;11802;53.160;8.214;2022-08-01T11:14:33;28.70;99.90
23267;DHT22;11802;53.160;8.214;2022-08-01T11:20:08;29.30;99.90
23267;DHT22;11802;53.160;8.214;2022-08-01T11:28:18;28.20;99.90
23267;DHT22;11802;53.160;8.214;2022-08-01T11:30:53;28.20;99.90
23267;DHT22;11802;53.160;8.214;2022-08-01T11:38:37;28.70;99.90
23267;DHT22;11802;53.160;8.214;2022-08-01T11:41:23;28.60;99.90
23267;DHT22;11802;53.160;8.214;2022-08-01T11:46:44;27.70;99.90
23267;DHT22;11802;53.160;8.214;2022-08-01T11:52:14;27.00;99.90
23267;DHT22;11802;53.160;8.214;2022-08-01T11:54:52;26.50;99.90
23267;DHT22;11802;53.160;8.214;2022-08-01T12:02:28;27.60;99.90
23267;DHT22;11802;53.160;8.214;2022-08-01T12:07:22;27.70;99.90
23267;DHT22;11802;53.160;8.214;2022-08-01T12:09:48;27.90;99.90
23267;DHT22;11802;53.160;8.214;2022-08-01T12:12:17;27.90;99.90
23267;DHT22;11802;53.160;8.214;2022-08-01T12:14:45;27.90;99.90
23267;DHT22;11802;53.160;8.214;2022-08-01T12:17:11;27.70;99.90
23267;DHT22;11802;53.160;8.214;2022-08-01T12:19:36;27.00;99.90
23267;DHT22;11802;53.160;8.214;2022-08-01T12:22:12;26.90;99.90
23267;DHT22;11802;53.160;8.214;2022-08-01T12:24:42;27.20;99.90
23267;DHT22;11802;53.160;8.214;2022-08-01T12:27:09;27.10;99.90
23267;DHT22;11802;53.160;8.214;2022-08-01T12:29:41;26.90;99.90
23267;DHT22;11802;53.160;8.214;2022-08-01T12:32:23;26.20;99.90
23267;DHT22;11802;53.160;8.214;2022-08-01T12:34:49;25.90;99.90
23267;DHT22;11802;53.160;8.214;2022-08-01T12:37:16;25.90;99.90
23267;DHT22;11802;53.160;8.214;2022-08-01T12:39:42;25.70;99.90
23267;DHT22;11802;53.160;8.214;2022-08-01T12:42:08;25.90;99.90
23267;DHT22;11802;53.160;8.214;2022-08-01T12:44:36;25.80;99.90
23267;DHT22;11802;53.160;8.214;2022-08-01T12:47:04;25.80;99.90
23267;DHT22;11802;53.160;8.214;2022-08-01T12:49:32;26.20;99.90
23267;DHT22;11802;53.160;8.214;2022-08-01T12:51:58;26.40;99.90
23267;DHT22;11802;53.160;8.214;2022-08-01T12:54:23;26.70;99.90
23267;DHT22;11802;53.160;8.214;2022-08-01T12:56:51;26.90;99.90
23267;DHT22;11802;53.160;8.214;2022-08-01T12:59:22;26.70;99.90
23267;DHT22;11802;53.160;8.214;2022-08-01T13:01:53;27.40;99.90
23267;DHT22;11802;53.160;8.214;2022-08-01T13:04:20;27.40;99.90
23267;DHT22;11802;53.160;8.214;2022-08-01T13:06:46;26.50;99.90
23267;DHT22;11802;53.160;8.214;2022-08-01T13:09:12;25.70;99.90
23267;DHT22;11802;53.160;8.214;2022-08-01T13:11:40;24.80;99.90
23267;DHT22;11802;53.160;8.214;2022-08-01T13:14:06;24.40;99.90
23267;DHT22;11802;53.160;8.214;2022-08-01T13:16:32;24.90;99.90
23267;DHT22;11802;53.160;8.214;2022-08-01T13:18:58;25.20;99.90
23267;DHT22;11802;53.160;8.214;2022-08-01T13:21:28;25.50;99.90
23267;DHT22;11802;53.160;8.214;2022-08-01T13:26:48;26.90;99.90
23267;DHT22;11802;53.160;8.214;2022-08-01T13:29:21;26.90;99.90
23267;DHT22;11802;53.160;8.214;2022-08-01T13:31:48;27.10;99.90
23267;DHT22;11802;53.160;8.214;2022-08-01T13:34:14;27.30;99.90
23267;DHT22;11802;53.160;8.214;2022-08-01T13:36:40;27.10;99.90
23267;DHT22;11802;53.160;8.214;2022-08-01T13:39:06;26.90;99.90
23267;DHT22;11802;53.160;8.214;2022-08-01T13:41:51;26.50;99.90
23267;DHT22;11802;53.160;8.214;2022-08-01T13:44:17;26.50;99.90
23267;DHT22;11802;53.160;8.214;2022-08-01T13:46:43;26.60;99.90
23267;DHT22;11802;53.160;8.214;2022-08-01T13:49:10;26.70;99.90
23267;DHT22;11802;53.160;8.214;2022-08-01T13:51:36;26.50;99.90
23267;DHT22;11802;53.160;8.214;2022-08-01T13:54:03;26.40;99.90
23267;DHT22;11802;53.160;8.214;2022-08-01T13:56:28;26.10;99.90
23267;DHT22;11802;53.160;8.214;2022-08-01T13:58:55;25.50;99.90
23267;DHT22;11802;53.160;8.214;2022-08-01T14:01:21;25.80;99.90
23267;DHT22;11802;53.160;8.214;2022-08-01T14:03:47;25.80;99.90
23267;DHT22;11802;53.160;8.214;2022-08-01T14:06:13;25.70;99.90
23267;DHT22;11802;53.160;8.214;2022-08-01T14:08:41;25.80;99.90
23267;DHT22;11802;53.160;8.214;2022-08-01T14:11:07;26.10;99.90
23267;DHT22;11802;53.160;8.214;2022-08-01T14:13:33;26.40;99.90
23267;DHT22;11802;53.160;8.214;2022-08-01T14:15:59;26.20;99.90
23267;DHT22;11802;53.160;8.214;2022-08-01T14:18:25;26.00;99.90
23267;DHT22;11802;53.160;8.214;2022-08-01T14:20:51;26.10;99.90
23267;DHT22;11802;53.160;8.214;2022-08-01T14:23:17;26.00;99.90
23267;DHT22;11802;53.160;8.214;2022-08-01T14:25:43;25.80;99.90
23267;DHT22;11802;53.160;8.214;2022-08-01T14:28:09;25.60;99.90
23267;DHT22;11802;53.160;8.214;2022-08-01T14:30:35;25.80;99.90
23267;DHT22;11802;53.160;8.214;2022-08-01T14:33:01;26.20;99.90
23267;DHT22;11802;53.160;8.214;2022-08-01T14:35:27;26.50;99.90
23267;DHT22;11802;53.160;8.214;2022-08-01T14:37:52;26.40;99.90
23267;DHT22;11802;53.160;8.214;2022-08-01T14:40:18;26.30;99.90
23267;DHT22;11802;53.160;8.214;2022-08-01T14:42:44;26.20;99.90
23267;DHT22;11802;53.160;8.214;2022-08-01T14:45:11;26.10;99.90
23267;DHT22;11802;53.160;8.214;2022-08-01T14:47:42;26.40;99.90
23267;DHT22;11802;53.160;8.214;2022-08-01T14:50:10;26.30;99.90
23267;DHT22;11802;53.160;8.214;2022-08-01T14:52:37;25.80;99.90
23267;DHT22;11802;53.160;8.214;2022-08-01T14:55:04;25.20;99.90
23267;DHT22;11802;53.160;8.214;2022-08-01T14:57:30;25.00;99.90
23267;DHT22;11802;53.160;8.214;2022-08-01T14:59:56;24.70;99.90
23267;DHT22;11802;53.160;8.214;2022-08-01T15:02:22;24.90;99.90
23267;DHT22;11802;53.160;8.214;2022-08-01T15:04:48;25.20;99.90
23267;DHT22;11802;53.160;8.214;2022-08-01T15:07:15;25.00;99.90
23267;DHT22;11802;53.160;8.214;2022-08-01T15:09:42;24.80;99.90
23267;DHT22;11802;53.160;8.214;2022-08-01T15:12:08;24.60;99.90
23267;DHT22;11802;53.160;8.214;2022-08-01T15:14:34;24.10;99.90
23267;DHT22;11802;53.160;8.214;2022-08-01T15:19:45;24.30;99.90
23267;DHT22;11802;53.160;8.214;2022-08-01T15:22:11;24.40;99.90
23267;DHT22;11802;53.160;8.214;2022-08-01T15:24:37;24.20;99.90
23267;DHT22;11802;53.160;8.214;2022-08-01T15:27:04;24.40;99.90
23267;DHT22;11802;53.160;8.214;2022-08-01T15:29:29;24.30;99.90
23267;DHT22;11802;53.160;8.214;2022-08-01T15:31:55;24.20;99.90
23267;DHT22;11802;53.160;8.214;2022-08-01T15:34:21;24.20;99.90
23267;DHT22;11802;53.160;8.214;2022-08-01T15:36:47;24.30;99.90
23267;DHT22;11802;53.160;8.214;2022-08-01T15:39:12;24.00;99.90
23267;DHT22;11802;53.160;8.214;2022-08-01T15:41:38;24.00;99.90
23267;DHT22;11802;53.160;8.214;2022-08-01T15:44:03;23.80;99.90
23267;DHT22;11802;53.160;8.214;2022-08-01T15:46:29;23.50;99.90
23267;DHT22;11802;53.160;8.214;2022-08-01T15:48:55;23.20;99.90
23267;DHT22;11802;53.160;8.214;2022-08-01T15:51:20;23.20;99.90
23267;DHT22;11802;53.160;8.214;2022-08-01T15:53:47;23.20;99.90
23267;DHT22;11802;53.160;8.214;2022-08-01T15:56:13;23.10;99.90
23267;DHT22;11802;53.160;8.214;2022-08-01T15:58:39;22.90;99.90
23267;DHT22;11802;53.160;8.214;2022-08-01T16:01:04;22.60;99.90
23267;DHT22;11802;53.160;8.214;2022-08-01T16:03:30;22.20;99.90
23267;DHT22;11802;53.160;8.214;2022-08-01T16:05:56;22.10;99.90
23267;DHT22;11802;53.160;8.214;2022-08-01T16:08:21;21.90;99.90
23267;DHT22;11802;53.160;8.214;2022-08-01T16:10:47;21.90;99.90
23267;DHT22;11802;53.160;8.214;2022-08-01T16:13:13;22.30;99.90
23267;DHT22;11802;53.160;8.214;2022-08-01T16:15:39;22.60;99.90
23267;DHT22;11802;53.160;8.214;2022-08-01T16:18:09;22.40;99.90
23267;DHT22;11802;53.160;8.214;2022-08-01T16:20:37;22.30;99.90
23267;DHT22;11802;53.160;8.214;2022-08-01T16:23:03;22.00;99.90
23267;DHT22;11802;53.160;8.214;2022-08-01T16:25:29;21.70;99.90
23267;DHT22;11802;53.160;8.214;2022-08-01T16:27:54;21.80;99.90
23267;DHT22;11802;53.160;8.214;2022-08-01T16:30:20;21.90;99.90